Time;durP1;ratioP1;P1;durP2;ratioP2;P2;SDS_P1;SDS_P2;PMS_P1;PMS_P2;Temp;Humidity;BMP_temperature;BMP_pressure;BME280_temperature;BME280_humidity;BME280_pressure;Samples;Min_cycle;Max_cycle;Signal;HPM_P1;HPM_P2
2023/10/10 00:00:35;;;;;;;;;;;;;;;5.05;71.08;101611.27;106259;1259;124063;-81
2023/10/10 00:03:23;;;;;;;;;;;;;;;5.00;71.27;101608.87;106241;1259;74211;-81
2023/10/10 00:05:49;;;;;;;;;;;;;;;4.97;71.31;101609.55;106212;1259;125976;-80
2023/10/10 00:08:20;;;;;;;;;;;;;;;4.94;71.44;101611.08;106224;1259;71201;-80
2023/10/10 00:10:50;;;;;;;;;;;;;;;4.92;71.49;101609.54;106133;1258;124488;-80
2023/10/10 00:13:17;;;;;;;;;;;;;;;4.89;71.66;101606.60;106367;1259;60739;-80
2023/10/10 00:15:55;;;;;;;;;;;;;;;4.86;71.73;101606.95;106316;1259;74641;-80
2023/10/10 00:18:22;;;;;;;;;;;;;;;4.84;71.82;101608.21;106172;1260;125166;-81
2023/10/10 00:21:08;;;;;;;;;;;;;;;4.82;71.99;101607.08;106419;1259;71190;-80
2023/10/10 00:23:41;;;;;;;;;;;;;;;4.80;72.06;101600.85;106289;1258;125312;-81
2023/10/10 00:26:12;;;;;;;;;;;;;;;4.79;72.30;101599.77;106381;1259;62025;-80
2023/10/10 00:28:41;;;;;;;;;;;;;;;4.78;72.41;101595.33;106239;1263;124851;-80
2023/10/10 00:31:13;;;;;;;;;;;;;;;4.77;72.50;101595.11;106467;1260;64669;-81
2023/10/10 00:33:40;;;;;;;;;;;;;;;4.76;72.58;101597.27;106295;1262;73105;-81
2023/10/10 00:36:12;;;;;;;;;;;;;;;4.75;72.66;101598.42;106253;1259;126091;-81
2023/10/10 00:38:39;;;;;;;;;;;;;;;4.75;72.60;101596.13;106246;1262;62069;-80
2023/10/10 00:41:09;;;;;;;;;;;;;;;4.75;72.82;101597.20;106245;1259;124827;-80
2023/10/10 00:43:36;;;;;;;;;;;;;;;4.76;72.96;101596.23;106395;1262;66094;-80
2023/10/10 00:46:04;;;;;;;;;;;;;;;4.76;72.99;101598.34;106482;1262;72390;-80
2023/10/10 00:48:32;;;;;;;;;;;;;;;4.77;73.01;101597.69;106232;1260;125109;-80
2023/10/10 00:51:10;;;;;;;;;;;;;;;4.79;73.06;101595.20;106442;1260;62013;-79
2023/10/10 00:53:41;;;;;;;;;;;;;;;4.81;73.01;101596.88;106291;1262;124760;-80
2023/10/10 00:56:08;;;;;;;;;;;;;;;4.82;73.25;101599.45;106269;1262;66009;-80
2023/10/10 00:58:38;;;;;;;;;;;;;;;4.85;73.38;101598.02;106348;1260;125251;-81
2023/10/10 01:01:09;;;;;;;;;;;;;;;4.87;73.49;101600.95;106233;1264;61590;-81
2023/10/10 01:03:45;;;;;;;;;;;;;;;4.91;73.40;101605.98;106279;1260;62095;-80
2023/10/10 01:06:24;;;;;;;;;;;;;;;4.92;73.52;101605.77;106298;1260;124749;-80
2023/10/10 01:08:53;;;;;;;;;;;;;;;4.95;73.54;101610.61;106445;1262;66077;-80
2023/10/10 01:11:20;;;;;;;;;;;;;;;4.96;73.63;101609.29;106332;1262;125353;-80
2023/10/10 01:13:47;;;;;;;;;;;;;;;4.97;73.67;101608.99;106367;1262;62036;-81
2023/10/10 01:16:13;;;;;;;;;;;;;;;4.98;73.64;101608.73;106321;1260;61941;-80
2023/10/10 01:18:51;;;;;;;;;;;;;;;4.99;73.75;101609.34;106307;1259;125047;-80
2023/10/10 01:21:29;;;;;;;;;;;;;;;5.00;73.76;101611.46;106522;1259;65191;-80
2023/10/10 01:24:00;;;;;;;;;;;;;;;5.01;73.85;101613.80;106282;1260;125571;-80
2023/10/10 01:26:36;;;;;;;;;;;;;;;5.02;73.91;101613.67;106361;1259;62177;-81
2023/10/10 01:29:25;;;;;;;;;;;;;;;5.03;73.86;101611.83;106303;1262;124371;-81
2023/10/10 01:31:52;;;;;;;;;;;;;;;5.05;73.99;101617.52;106524;1259;74270;-80
2023/10/10 01:34:31;;;;;;;;;;;;;;;5.05;74.01;101618.54;106390;1260;124254;-80
2023/10/10 01:37:02;;;;;;;;;;;;;;;5.05;74.08;101620.13;106434;1259;71487;-80
2023/10/10 01:39:34;;;;;;;;;;;;;;;5.04;74.13;101617.43;106332;1263;60665;-81
2023/10/10 01:42:01;;;;;;;;;;;;;;;5.02;74.08;101610.90;106333;1258;124011;-81
2023/10/10 01:44:28;;;;;;;;;;;;;;;5.00;74.06;101610.63;106483;1262;74002;-81
2023/10/10 01:46:54;;;;;;;;;;;;;;;4.99;74.04;101610.88;106384;1260;124297;-80
2023/10/10 01:49:21;;;;;;;;;;;;;;;4.98;74.11;101609.75;106271;1260;71608;-81
2023/10/10 01:52:23;;;;;;;;;;;;;;;4.96;74.10;101608.77;106392;1260;62091;-80
2023/10/10 01:54:45;;;;;;;;;;;;;;;4.94;74.37;101610.05;106402;1264;60160;-80
2023/10/10 01:57:21;;;;;;;;;;;;;;;4.93;74.54;101608.91;106482;1260;76090;-80
2023/10/10 01:59:48;;;;;;;;;;;;;;;4.92;74.49;101609.35;106438;1262;124339;-81
2023/10/10 02:02:16;;;;;;;;;;;;;;;4.91;74.59;101612.27;106408;1260;71095;-81
2023/10/10 02:04:43;;;;;;;;;;;;;;;4.91;74.67;101612.10;106396;1260;124673;-81
2023/10/10 02:07:31;;;;;;;;;;;;;;;4.88;74.89;101609.70;106387;1259;62061;-81
2023/10/10 02:10:13;;;;;;;;;;;;;;;4.90;74.90;101610.48;106444;1263;75505;-81
2023/10/10 02:12:44;;;;;;;;;;;;;;;4.89;74.90;101613.55;106362;1262;124805;-81
2023/10/10 02:15:18;;;;;;;;;;;;;;;4.88;74.82;101615.41;106583;1259;71794;-81
2023/10/10 02:17:51;;;;;;;;;;;;;;;4.87;75.00;101612.94;106366;1260;125193;-80
2023/10/10 02:22:54;;;;;;;;;;;;;;;4.88;75.05;101608.80;106322;1260;125019;-80
2023/10/10 02:27:56;;;;;;;;;;;;;;;4.90;75.35;101597.23;106408;1258;71393;-80
2023/10/10 02:30:38;;;;;;;;;;;;;;;4.89;75.28;101597.93;106328;1259;124930;-81
2023/10/10 02:38:22;;;;;;;;;;;;;;;4.93;75.32;101608.39;106418;1261;66386;-81
2023/10/10 02:40:55;;;;;;;;;;;;;;;4.94;75.44;101607.08;106379;1260;125183;-81
2023/10/10 02:43:45;;;;;;;;;;;;;;;4.95;75.25;101608.56;106464;1260;62050;-80
2023/10/10 02:46:17;;;;;;;;;;;;;;;4.97;75.43;101607.25;106422;1262;62063;-80
2023/10/10 02:48:44;;;;;;;;;;;;;;;4.99;75.52;101611.90;106450;1262;74574;-80
2023/10/10 02:51:15;;;;;;;;;;;;;;;4.99;75.44;101610.20;106387;1261;65077;-80
2023/10/10 02:53:46;;;;;;;;;;;;;;;4.99;75.35;101607.43;106196;1265;125097;-81
2023/10/10 02:56:16;;;;;;;;;;;;;;;5.00;75.43;101606.61;106337;1262;60571;-81
2023/10/10 02:58:45;;;;;;;;;;;;;;;5.02;75.53;101605.84;106327;1263;125205;-81
2023/10/10 03:01:46;;;;;;;;;;;;;;;5.02;75.48;101607.77;106455;1262;75592;-81
2023/10/10 03:03:58;;;;;;;;;;;;;;;5.02;75.56;101603.60;106507;1259;66249;-80
2023/10/10 03:06:28;;;;;;;;;;;;;;;5.04;75.57;101602.29;106338;1259;125470;-80
2023/10/10 03:09:07;;;;;;;;;;;;;;;5.04;75.59;101607.20;106309;1263;62089;-80
2023/10/10 03:11:40;;;;;;;;;;;;;;;5.06;75.82;101602.79;106257;1258;125076;-80
2023/10/10 03:14:08;;;;;;;;;;;;;;;5.07;75.82;101602.69;106363;1261;76659;-80
2023/10/10 03:16:59;;;;;;;;;;;;;;;5.08;75.62;101606.55;106295;1261;125103;-80
2023/10/10 03:19:27;;;;;;;;;;;;;;;5.09;75.70;101605.42;106405;1263;71444;-80
2023/10/10 03:22:19;;;;;;;;;;;;;;;5.10;75.75;101607.40;106366;1261;62049;-80
2023/10/10 03:27:50;;;;;;;;;;;;;;;5.14;75.63;101609.84;106361;1271;74642;-80
2023/10/10 03:30:50;;;;;;;;;;;;;;;5.14;75.63;101610.74;106184;1259;125148;-80
2023/10/10 05:25:59;;;;;;;;;;;;;;;6.17;76.85;101655.48;105710;1260;62086;-79
2023/10/10 05:28:30;;;;;;;;;;;;;;;6.25;76.77;101652.08;105762;1260;62103;-79
2023/10/10 05:30:57;;;;;;;;;;;;;;;6.33;76.87;101653.27;106328;1260;75497;-78
2023/10/10 05:33:26;;;;;;;;;;;;;;;6.42;76.85;101655.65;106437;1260;65969;-78
2023/10/10 05:35:58;;;;;;;;;;;;;;;6.49;76.76;101655.19;106250;1260;124406;-79
2023/10/10 05:38:25;;;;;;;;;;;;;;;6.56;76.72;101649.16;106356;1258;62235;-78
2023/10/10 05:40:52;;;;;;;;;;;;;;;6.66;76.76;101651.23;106250;1260;125233;-79
2023/10/10 05:43:26;;;;;;;;;;;;;;;6.76;76.75;101651.13;106299;1263;75575;-79
2023/10/10 05:45:53;;;;;;;;;;;;;;;6.88;76.73;101649.82;106395;1259;65051;-79
2023/10/10 05:48:20;;;;;;;;;;;;;;;7.00;76.72;101654.67;106267;1260;125806;-79
2023/10/10 05:50:48;;;;;;;;;;;;;;;7.10;76.73;101654.15;106316;1260;62530;-79
2023/10/10 05:53:16;;;;;;;;;;;;;;;7.22;76.79;101651.48;106267;1261;125197;-80
2023/10/10 05:55:43;;;;;;;;;;;;;;;7.37;76.72;101652.95;106388;1258;75513;-80
2023/10/10 05:58:12;;;;;;;;;;;;;;;7.50;76.63;101651.91;106333;1260;65891;-80
2023/10/10 06:00:41;;;;;;;;;;;;;;;7.64;76.70;101649.80;106211;1263;125553;-80
2023/10/10 06:03:08;;;;;;;;;;;;;;;7.77;76.55;101646.81;106277;1261;62220;-80
2023/10/10 06:05:39;;;;;;;;;;;;;;;7.90;76.48;101645.02;106307;1259;124988;-80
2023/10/10 06:08:06;;;;;;;;;;;;;;;8.05;76.47;101643.65;108881;1260;75495;-78
2023/10/10 06:10:33;;;;;;;;;;;;;;;8.20;76.46;101643.85;106809;1260;125275;-80
2023/10/10 06:13:06;;;;;;;;;;;;;;;8.36;76.26;101644.48;106358;1260;71399;-80
2023/10/10 06:15:33;;;;;;;;;;;;;;;8.54;76.13;101641.51;108934;1259;59915;-78
2023/10/10 06:18:08;;;;;;;;;;;;;;;8.71;76.10;101639.70;106914;1261;125406;-79
2023/10/10 06:20:40;;;;;;;;;;;;;;;8.88;75.94;101641.71;106242;1261;74998;-78
2023/10/10 06:23:08;;;;;;;;;;;;;;;9.02;75.84;101637.27;106249;1260;125424;-79
2023/10/10 06:25:37;;;;;;;;;;;;;;;9.15;75.74;101635.05;106362;1259;72629;-80
2023/10/10 06:28:22;;;;;;;;;;;;;;;9.28;75.60;101632.30;106244;1260;60187;-79
2023/10/10 06:30:52;;;;;;;;;;;;;;;9.42;75.52;101633.98;106184;1260;124899;-80
2023/10/10 06:33:27;;;;;;;;;;;;;;;9.55;75.40;101636.11;106285;1259;75638;-79
2023/10/10 06:41:37;;;;;;;;;;;;;;;9.96;74.87;101642.73;106299;1260;124937;-79
2023/10/10 06:44:31;;;;;;;;;;;;;;;10.04;74.60;101645.69;106443;1259;62064;-79
2023/10/10 06:46:58;;;;;;;;;;;;;;;10.08;74.28;101644.31;106279;1262;124956;-79
2023/10/10 06:49:25;;;;;;;;;;;;;;;10.14;73.98;101647.16;106332;1261;65829;-79
2023/10/10 06:51:55;;;;;;;;;;;;;;;10.18;73.77;101649.27;106459;1259;72805;-79
2023/10/10 06:54:27;;;;;;;;;;;;;;;10.24;73.53;101652.14;106288;1261;124828;-79
2023/10/10 06:57:04;;;;;;;;;;;;;;;10.27;73.36;101647.17;106416;1262;62169;-79
2023/10/10 06:59:32;;;;;;;;;;;;;;;10.32;73.14;101644.78;106250;1264;125005;-79
2023/10/10 07:02:13;;;;;;;;;;;;;;;10.37;73.00;101648.50;106412;1261;64718;-79
2023/10/10 07:04:40;;;;;;;;;;;;;;;10.50;73.10;101648.48;106265;1260;124898;-78
2023/10/10 07:07:08;;;;;;;;;;;;;;;10.64;72.83;101650.63;106373;1260;62168;-79
2023/10/10 07:09:37;;;;;;;;;;;;;;;10.78;72.74;101652.73;105954;1259;62507;-79
2023/10/10 07:12:10;;;;;;;;;;;;;;;10.91;72.44;101651.83;106220;1260;124806;-80
2023/10/10 07:14:53;;;;;;;;;;;;;;;11.06;72.29;101651.33;106272;1259;66070;-80
2023/10/10 07:17:26;;;;;;;;;;;;;;;11.19;71.98;101648.48;106115;1263;124499;-80
2023/10/10 07:22:33;;;;;;;;;;;;;;;11.47;71.68;101651.41;106481;1259;62068;-80
2023/10/10 07:25:07;;;;;;;;;;;;;;;11.66;71.59;101647.67;106257;1260;75323;-80
2023/10/10 07:27:35;;;;;;;;;;;;;;;11.88;71.25;101652.33;106412;1260;65990;-80
2023/10/10 07:30:08;;;;;;;;;;;;;;;12.01;70.82;101652.09;106287;1258;126286;-80
2023/10/10 07:32:38;;;;;;;;;;;;;;;12.14;70.44;101649.70;106300;1259;62111;-79
2023/10/10 07:35:05;;;;;;;;;;;;;;;12.24;70.07;101651.80;106139;1260;124713;-78
2023/10/10 07:37:32;;;;;;;;;;;;;;;12.33;69.77;101654.52;106108;1263;75592;-80
2023/10/10 07:42:49;;;;;;;;;;;;;;;12.43;69.10;101657.84;106170;1261;125887;-80
2023/10/10 07:51:06;;;;;;;;;;;;;;;12.54;68.53;101657.33;106299;1263;75494;-80
2023/10/10 07:53:40;;;;;;;;;;;;;;;12.56;68.35;101663.38;106309;1260;124959;-80
2023/10/10 07:56:07;;;;;;;;;;;;;;;12.58;68.07;101669.41;106404;1262;71964;-80
2023/10/10 07:58:43;;;;;;;;;;;;;;;12.59;67.78;101673.14;106353;1263;62050;-80
2023/10/10 08:01:10;;;;;;;;;;;;;;;12.58;67.56;101672.23;106325;1261;61957;-79
2023/10/10 08:03:43;;;;;;;;;;;;;;;12.57;67.55;101675.55;106316;1262;75528;-79
2023/10/10 08:06:22;;;;;;;;;;;;;;;12.59;67.35;101677.02;106445;1261;124746;-79
2023/10/10 08:08:56;;;;;;;;;;;;;;;12.61;67.27;101679.21;106384;1262;72520;-79
2023/10/10 08:11:35;;;;;;;;;;;;;;;12.63;67.25;101677.85;106270;1260;125496;-79
2023/10/10 08:14:06;;;;;;;;;;;;;;;12.61;66.90;101679.56;106464;1260;62054;-79
2023/10/10 08:16:34;;;;;;;;;;;;;;;12.60;66.70;101681.45;106312;1262;73388;-79
2023/10/10 08:19:07;;;;;;;;;;;;;;;12.56;66.41;101683.43;106351;1260;64660;-80
2023/10/10 08:21:48;;;;;;;;;;;;;;;12.54;66.34;101688.14;106418;1259;72416;-80
2023/10/10 08:24:15;;;;;;;;;;;;;;;12.54;66.26;101687.61;106261;1259;124413;-80
2023/10/10 08:26:42;;;;;;;;;;;;;;;12.53;66.15;101692.33;106296;1259;62094;-80
2023/10/10 08:29:09;;;;;;;;;;;;;;;12.51;66.32;101690.31;106223;1262;124730;-80
2023/10/10 08:31:36;;;;;;;;;;;;;;;12.49;66.34;101686.95;106422;1259;66773;-79
2023/10/10 08:34:03;;;;;;;;;;;;;;;12.49;66.27;101685.52;106295;1259;71456;-79
2023/10/10 08:36:30;;;;;;;;;;;;;;;12.51;66.27;101688.75;106248;1260;124496;-79
2023/10/10 08:38:57;;;;;;;;;;;;;;;12.54;66.10;101688.67;106368;1262;61928;-79
2023/10/10 08:41:23;;;;;;;;;;;;;;;12.54;65.89;101687.97;106239;1260;124509;-80
2023/10/10 08:43:53;;;;;;;;;;;;;;;12.57;65.80;101686.28;106328;1260;65283;-79
2023/10/10 08:46:21;;;;;;;;;;;;;;;12.59;65.71;101687.41;106329;1259;71570;-79
2023/10/10 08:48:48;;;;;;;;;;;;;;;12.57;65.44;101689.46;106195;1259;124908;-79
2023/10/10 08:51:15;;;;;;;;;;;;;;;12.55;65.41;101690.10;106229;1264;61996;-79
2023/10/10 08:53:41;;;;;;;;;;;;;;;12.55;65.32;101692.38;106116;1260;126031;-79
2023/10/10 08:56:08;;;;;;;;;;;;;;;12.54;65.20;101690.77;106329;1262;66729;-79
2023/10/10 08:58:35;;;;;;;;;;;;;;;12.50;64.91;101697.67;106338;1259;124559;-80
2023/10/10 09:01:02;;;;;;;;;;;;;;;12.47;64.71;101698.45;106345;1260;60172;-80
2023/10/10 09:03:34;;;;;;;;;;;;;;;12.45;64.61;101700.52;106403;1260;61958;-80
2023/10/10 09:06:13;;;;;;;;;;;;;;;12.45;64.43;101698.94;106332;1260;124549;-80
2023/10/10 09:08:43;;;;;;;;;;;;;;;12.48;64.45;101701.67;106458;1263;66235;-80
2023/10/10 09:11:11;;;;;;;;;;;;;;;12.54;64.37;101703.11;106332;1260;124670;-76
2023/10/10 09:14:01;;;;;;;;;;;;;;;12.60;64.31;101702.23;105785;1262;62140;-79
2023/10/10 09:16:44;;;;;;;;;;;;;;;12.65;64.24;101697.64;106382;1262;61156;-77
2023/10/10 09:19:11;;;;;;;;;;;;;;;12.73;64.16;101698.92;106331;1260;213442;-80
2023/10/10 09:21:50;;;;;;;;;;;;;;;12.79;64.15;101698.94;106335;1259;65626;-79
2023/10/10 09:24:27;;;;;;;;;;;;;;;12.83;64.03;101697.31;106317;1259;124507;-79
2023/10/10 09:26:56;;;;;;;;;;;;;;;12.84;63.76;101700.17;106502;1260;61974;-78
2023/10/10 09:29:34;;;;;;;;;;;;;;;12.84;63.67;101700.88;105772;1260;124600;-78
2023/10/10 09:32:01;;;;;;;;;;;;;;;12.82;63.41;101708.22;105786;1258;74990;-79
2023/10/10 09:34:35;;;;;;;;;;;;;;;12.82;63.43;101710.50;105763;1259;65049;-79
2023/10/10 09:37:07;;;;;;;;;;;;;;;12.85;63.51;101708.30;106175;1259;124992;-79
2023/10/10 09:39:36;;;;;;;;;;;;;;;12.88;63.44;101713.15;106229;1264;62053;-79
2023/10/10 09:47:55;;;;;;;;;;;;;;;12.85;63.10;101712.34;106099;1260;124582;-79
2023/10/10 09:52:57;;;;;;;;;;;;;;;12.94;62.88;101712.09;106304;1259;125077;-80
2023/10/10 09:58:00;;;;;;;;;;;;;;;13.09;62.74;101708.49;106334;1259;75591;-80
2023/10/10 10:06:02;;;;;;;;;;;;;;;13.30;62.13;101704.02;106221;1258;124572;-79
2023/10/10 10:09:08;;;;;;;;;;;;;;;13.33;62.08;101701.64;106512;1259;62143;-79
2023/10/10 10:11:44;;;;;;;;;;;;;;;13.38;61.78;101699.34;106261;1258;124423;-80
2023/10/10 10:14:46;;;;;;;;;;;;;;;13.46;61.59;101694.46;106510;1258;66627;-78
2023/10/10 10:17:18;;;;;;;;;;;;;;;13.55;61.36;101693.45;106176;1259;125290;-78
2023/10/10 10:19:45;;;;;;;;;;;;;;;13.68;61.33;101691.17;106310;1259;60125;-79
2023/10/10 10:22:14;;;;;;;;;;;;;;;13.76;60.95;101693.35;106341;1260;62076;-79
2023/10/10 10:24:46;;;;;;;;;;;;;;;13.85;60.88;101688.98;106134;1258;124504;-79
2023/10/10 10:29:54;;;;;;;;;;;;;;;14.11;60.50;101685.08;106289;1262;124483;-79
2023/10/10 10:32:24;;;;;;;;;;;;;;;14.22;60.40;101686.74;106390;1258;62037;-79
2023/10/10 10:34:56;;;;;;;;;;;;;;;14.29;60.15;101689.05;106219;1260;125586;-79
2023/10/10 10:37:23;;;;;;;;;;;;;;;14.37;60.09;101686.08;106461;1258;75362;-79
2023/10/10 10:42:47;;;;;;;;;;;;;;;14.52;59.57;101683.44;106255;1259;124557;-79
2023/10/10 10:45:41;;;;;;;;;;;;;;;14.55;59.36;101685.27;106410;1259;62013;-79
2023/10/10 10:48:09;;;;;;;;;;;;;;;14.51;58.86;101686.06;106229;1258;124421;-79
2023/10/10 10:50:42;;;;;;;;;;;;;;;14.51;58.85;101686.23;106253;1262;75517;-79
2023/10/10 10:53:31;;;;;;;;;;;;;;;14.54;58.82;101685.60;106148;1259;125254;-79
2023/10/10 10:59:12;;;;;;;;;;;;;;;14.57;58.48;101680.92;105838;1265;124788;-80
2023/10/10 11:01:42;;;;;;;;;;;;;;;14.63;58.51;101679.81;106379;1268;62323;-79
2023/10/10 11:04:14;;;;;;;;;;;;;;;14.70;58.33;101677.53;105913;1264;75510;-79
2023/10/10 11:06:50;;;;;;;;;;;;;;;14.75;58.13;101676.23;105571;1266;125549;-79
2023/10/10 11:09:30;;;;;;;;;;;;;;;14.78;57.81;101673.09;105930;1270;71619;-80
2023/10/10 11:12:02;;;;;;;;;;;;;;;14.76;57.62;101671.98;105773;1265;125036;-80
2023/10/10 11:14:33;;;;;;;;;;;;;;;14.80;57.58;101668.19;106010;1265;62202;-80
2023/10/10 11:16:59;;;;;;;;;;;;;;;14.83;57.34;101661.73;105879;1265;124597;-79
2023/10/10 11:22:00;;;;;;;;;;;;;;;14.81;56.86;101652.86;105981;1266;72740;-79
2023/10/10 11:24:29;;;;;;;;;;;;;;;14.77;56.64;101656.12;105782;1268;124956;-79
2023/10/10 11:27:43;;;;;;;;;;;;;;;14.73;56.66;101653.92;105921;1265;62216;-79
2023/10/10 11:29:47;;;;;;;;;;;;;;;14.76;56.84;101653.11;105739;1269;125236;-79
2023/10/10 11:32:23;;;;;;;;;;;;;;;14.78;56.74;101651.20;105991;1269;66018;-79
2023/10/10 11:34:56;;;;;;;;;;;;;;;14.79;56.63;101652.63;106209;1260;125171;-79
2023/10/10 11:37:25;;;;;;;;;;;;;;;14.79;56.68;101652.10;106511;1259;62151;-78
2023/10/10 11:42:57;;;;;;;;;;;;;;;14.84;56.74;101642.67;106393;1259;124978;-79
2023/10/10 11:45:27;;;;;;;;;;;;;;;14.84;56.55;101638.59;106381;1259;66183;-78
2023/10/10 11:48:00;;;;;;;;;;;;;;;14.87;56.65;101633.53;106035;1258;125925;-80
2023/10/10 11:50:46;;;;;;;;;;;;;;;14.92;56.64;101635.08;106400;1259;62674;-80
2023/10/10 11:53:14;;;;;;;;;;;;;;;14.99;56.42;101631.85;106273;1259;124575;-79
2023/10/10 11:55:41;;;;;;;;;;;;;;;14.96;56.04;101636.04;106323;1260;75548;-78
2023/10/10 11:58:08;;;;;;;;;;;;;;;14.93;55.87;101632.80;106280;1260;65429;-78
2023/10/10 12:00:44;;;;;;;;;;;;;;;14.97;55.81;101636.58;106340;1260;124812;-79
2023/10/10 12:03:11;;;;;;;;;;;;;;;14.97;55.43;101633.41;106396;1259;62406;-80
2023/10/10 12:05:47;;;;;;;;;;;;;;;14.93;55.20;101630.48;106347;1257;124910;-79
2023/10/10 12:08:15;;;;;;;;;;;;;;;14.97;55.23;101627.58;106444;1258;74643;-78
2023/10/10 12:10:49;;;;;;;;;;;;;;;14.98;54.90;101621.39;106396;1262;125539;-78
2023/10/10 12:13:25;;;;;;;;;;;;;;;14.93;54.87;101611.95;105708;1264;71139;-79
2023/10/10 12:15:51;;;;;;;;;;;;;;;15.01;55.01;101609.79;106415;1260;62152;-79
2023/10/10 12:18:20;;;;;;;;;;;;;;;15.08;54.93;101609.41;106386;1259;124414;-78
2023/10/10 12:20:46;;;;;;;;;;;;;;;15.16;55.05;101616.98;106470;1262;73589;-78
2023/10/10 12:23:13;;;;;;;;;;;;;;;15.23;55.02;101620.48;106360;1259;124814;-79
2023/10/10 12:25:43;;;;;;;;;;;;;;;15.30;54.98;101614.44;106383;1262;70946;-78
2023/10/10 12:28:10;;;;;;;;;;;;;;;15.36;54.77;101613.67;106329;1259;62060;-79
2023/10/10 12:30:40;;;;;;;;;;;;;;;15.39;54.70;101621.34;106220;1258;124455;-78
2023/10/10 12:33:13;;;;;;;;;;;;;;;15.45;54.76;101625.34;106298;1263;73226;-79
2023/10/10 12:35:42;;;;;;;;;;;;;;;15.56;54.53;101621.29;106340;1262;124882;-78
2023/10/10 12:38:09;;;;;;;;;;;;;;;15.57;54.17;101622.56;106391;1260;71894;-79
2023/10/10 12:40:36;;;;;;;;;;;;;;;15.59;53.97;101623.29;106380;1259;61981;-78
2023/10/10 12:43:03;;;;;;;;;;;;;;;15.58;53.73;101622.40;105773;1258;124473;-81
2023/10/10 12:45:32;;;;;;;;;;;;;;;15.57;53.81;101628.39;106326;1263;74417;-80
2023/10/10 12:47:59;;;;;;;;;;;;;;;15.57;53.87;101627.67;106303;1262;124467;-80
2023/10/10 12:50:26;;;;;;;;;;;;;;;15.53;53.77;101626.73;106307;1258;72379;-78
2023/10/10 12:53:09;;;;;;;;;;;;;;;15.44;53.75;101619.14;105675;1259;124727;-79
2023/10/10 12:55:36;;;;;;;;;;;;;;;15.27;53.85;101620.74;105654;1258;60239;-80
2023/10/10 12:58:15;;;;;;;;;;;;;;;15.13;54.05;101621.91;106215;1258;75782;-78
2023/10/10 13:00:50;;;;;;;;;;;;;;;15.06;54.21;101622.63;105634;1262;124891;-80
2023/10/10 13:03:20;;;;;;;;;;;;;;;15.03;54.42;101621.50;106170;1259;71248;-78
2023/10/10 13:05:52;;;;;;;;;;;;;;;14.99;54.45;101617.36;106227;1259;125011;-78
2023/10/10 13:08:22;;;;;;;;;;;;;;;14.95;54.52;101616.92;106328;1260;62058;-80
2023/10/10 13:10:55;;;;;;;;;;;;;;;14.93;54.60;101613.17;106050;1257;125044;-80
2023/10/10 13:13:26;;;;;;;;;;;;;;;14.94;54.79;101609.30;106225;1259;65169;-79
2023/10/10 13:16:07;;;;;;;;;;;;;;;14.98;54.91;101607.09;106329;1259;71038;-80
2023/10/10 13:18:35;;;;;;;;;;;;;;;14.97;54.67;101605.13;106199;1259;127413;-79
2023/10/10 13:21:04;;;;;;;;;;;;;;;14.93;54.51;101606.10;106309;1259;62036;-79
2023/10/10 13:23:31;;;;;;;;;;;;;;;14.85;54.60;101602.41;106280;1258;124712;-79
2023/10/10 13:25:58;;;;;;;;;;;;;;;14.79;54.66;101598.21;106276;1259;64831;-79
2023/10/10 13:28:24;;;;;;;;;;;;;;;14.72;54.75;101594.00;106257;1260;71412;-82
2023/10/10 13:30:51;;;;;;;;;;;;;;;14.69;54.96;101596.94;106147;1262;125042;-83
2023/10/10 13:33:20;;;;;;;;;;;;;;;14.66;54.91;101600.58;106404;1261;62053;-82
2023/10/10 13:35:48;;;;;;;;;;;;;;;14.61;55.08;101596.05;106280;1258;124637;-82
2023/10/10 13:38:15;;;;;;;;;;;;;;;14.56;55.10;101593.64;106320;1261;66041;-83
2023/10/10 13:40:46;;;;;;;;;;;;;;;14.50;54.95;101585.90;106259;1259;125354;-81
2023/10/10 13:43:22;;;;;;;;;;;;;;;14.43;54.99;101584.66;106404;1259;60104;-81
2023/10/10 13:45:49;;;;;;;;;;;;;;;14.39;55.16;101579.81;106254;1263;62059;-82
2023/10/10 13:48:18;;;;;;;;;;;;;;;14.36;55.27;101574.10;106225;1258;125040;-82
2023/10/10 13:50:45;;;;;;;;;;;;;;;14.33;55.29;101573.16;106415;1260;64950;-83
2023/10/10 13:53:13;;;;;;;;;;;;;;;14.28;55.13;101575.34;106223;1262;124767;-81
2023/10/10 13:55:40;;;;;;;;;;;;;;;14.23;55.16;101569.38;106593;1260;62065;-87
2023/10/10 13:58:07;;;;;;;;;;;;;;;14.22;55.31;101566.00;106407;1260;62093;-89
2023/10/10 14:00:34;;;;;;;;;;;;;;;14.20;55.40;101555.37;106199;1263;124633;-80
2023/10/10 14:03:03;;;;;;;;;;;;;;;14.15;55.34;101556.85;106634;1259;66077;-84
2023/10/10 14:05:33;;;;;;;;;;;;;;;14.14;55.59;101559.65;106267;1260;124937;-83
2023/10/10 14:08:02;;;;;;;;;;;;;;;14.14;55.49;101563.18;106426;1259;60144;-86
2023/10/10 14:10:37;;;;;;;;;;;;;;;14.10;55.44;101565.02;106801;1259;62066;-77
2023/10/10 14:13:19;;;;;;;;;;;;;;;14.04;55.54;101558.01;105825;1262;124924;-78
2023/10/10 14:15:56;;;;;;;;;;;;;;;13.99;55.42;101546.07;105917;1260;64651;-77
2023/10/10 14:18:27;;;;;;;;;;;;;;;13.93;55.64;101540.09;105581;1261;125087;-77
2023/10/10 14:20:54;;;;;;;;;;;;;;;13.87;55.64;101536.97;105918;1259;62056;-76
2023/10/10 14:23:26;;;;;;;;;;;;;;;13.85;55.80;101538.84;105779;1262;124805;-76
2023/10/10 14:26:03;;;;;;;;;;;;;;;13.82;55.94;101538.07;105803;1258;74743;-78
2023/10/10 14:28:29;;;;;;;;;;;;;;;13.80;56.14;101541.56;105698;1262;66302;-77
2023/10/10 14:30:59;;;;;;;;;;;;;;;13.79;56.23;101544.55;105828;1260;125197;-76
2023/10/10 14:33:25;;;;;;;;;;;;;;;13.77;56.27;101540.94;105736;1259;62166;-76
2023/10/10 14:35:52;;;;;;;;;;;;;;;13.75;56.33;101540.02;105706;1262;124780;-76
2023/10/10 14:38:19;;;;;;;;;;;;;;;13.72;56.39;101544.36;105710;1259;75401;-77
2023/10/10 14:40:45;;;;;;;;;;;;;;;13.70;56.42;101540.61;105764;1261;124841;-76
2023/10/10 14:43:12;;;;;;;;;;;;;;;13.67;56.46;101539.11;105846;1258;62188;-75
2023/10/10 14:45:42;;;;;;;;;;;;;;;13.65;56.65;101531.31;105761;1258;60216;-82
2023/10/10 14:48:18;;;;;;;;;;;;;;;13.60;56.78;101524.66;105874;1264;125942;-74
2023/10/10 14:50:52;;;;;;;;;;;;;;;13.54;56.74;101528.55;105689;1259;75515;-75
2023/10/10 14:53:22;;;;;;;;;;;;;;;13.45;56.73;101539.96;105665;1259;125580;-74
2023/10/10 14:55:51;;;;;;;;;;;;;;;13.38;56.91;101529.55;106617;1260;72288;-77
2023/10/10 14:58:21;;;;;;;;;;;;;;;13.33;57.04;101525.38;105697;1264;62516;-76
2023/10/10 15:00:49;;;;;;;;;;;;;;;13.26;57.00;101527.61;105621;1260;125613;-78
2023/10/10 15:03:16;;;;;;;;;;;;;;;13.15;57.02;101518.88;105773;1261;74576;-76
2023/10/10 15:05:47;;;;;;;;;;;;;;;13.02;57.09;101510.25;105784;1263;124945;-76
2023/10/10 15:08:14;;;;;;;;;;;;;;;12.89;57.24;101515.88;105997;1262;72762;-77
2023/10/10 15:10:43;;;;;;;;;;;;;;;12.78;57.35;101523.14;105678;1259;124910;-77
2023/10/10 15:13:16;;;;;;;;;;;;;;;12.71;57.65;101530.50;106039;1259;62136;-77
2023/10/10 15:15:45;;;;;;;;;;;;;;;12.68;57.86;101525.14;105833;1260;74237;-77
2023/10/10 15:18:13;;;;;;;;;;;;;;;12.66;57.90;101516.64;108798;1256;124868;-78
2023/10/10 15:20:45;;;;;;;;;;;;;;;12.64;57.94;101513.08;107531;1263;71839;-77
2023/10/10 15:23:18;;;;;;;;;;;;;;;12.62;58.01;101506.67;105493;1264;124708;-77
2023/10/10 15:25:45;;;;;;;;;;;;;;;12.58;58.02;101506.55;106255;1260;62072;-77
2023/10/10 15:28:12;;;;;;;;;;;;;;;12.49;58.05;101495.03;106293;1260;76041;-78
2023/10/10 15:30:41;;;;;;;;;;;;;;;12.38;58.17;101491.89;105772;1259;124622;-78
2023/10/10 15:33:09;;;;;;;;;;;;;;;12.23;58.24;101490.89;105755;1259;72689;-77
2023/10/10 15:35:39;;;;;;;;;;;;;;;12.08;58.33;101500.31;105715;1259;124423;-76
2023/10/10 15:38:11;;;;;;;;;;;;;;;11.94;58.54;101504.63;108829;1260;60823;-76
2023/10/10 15:40:41;;;;;;;;;;;;;;;11.80;58.78;101501.70;106378;1259;76065;-81